createdAt,value
2022-10-29T00:00:21.588Z,26.80
2022-10-29T00:02:53.952Z,24.07
2022-10-29T00:05:25.655Z,22.42
2022-10-29T00:07:58.054Z,23.60
2022-10-29T00:10:30.456Z,22.08
2022-10-29T00:13:04.218Z,23.67
2022-10-29T00:15:40.690Z,22.75
2022-10-29T00:18:13.755Z,25.67
2022-10-29T00:20:49.781Z,23.75
2022-10-29T00:23:21.358Z,28.75
2022-10-29T00:25:57.474Z,22.38
2022-10-29T00:28:32.298Z,23.75
2022-10-29T00:31:08.147Z,23.00
2022-10-29T00:33:39.893Z,22.77
2022-10-29T00:36:23.400Z,32.97
2022-10-29T00:39:00.887Z,28.35
2022-10-29T00:41:35.339Z,27.05
2022-10-29T00:44:20.683Z,26.63
2022-10-29T00:47:19.718Z,27.75
2022-10-29T00:49:57.683Z,23.92
2022-10-29T00:52:37.468Z,26.10
2022-10-29T00:55:17.314Z,28.20
2022-10-29T00:57:54.370Z,26.70
2022-10-29T01:00:27.956Z,25.88
2022-10-29T01:02:59.659Z,26.60
2022-10-29T01:05:33.348Z,24.17
2022-10-29T01:08:10.362Z,26.17
2022-10-29T01:10:44.891Z,21.95
2022-10-29T01:16:38.505Z,28.73
2022-10-29T01:19:24.069Z,26.95
2022-10-29T01:22:05.388Z,25.55
2022-10-29T01:25:07.835Z,23.08
2022-10-29T01:28:03.776Z,26.70
2022-10-29T01:31:00.769Z,23.00
2022-10-29T01:33:50.815Z,25.40
2022-10-29T01:36:37.728Z,37.25
2022-10-29T01:39:30.790Z,27.95
2022-10-29T01:42:14.175Z,24.58
2022-10-29T01:45:13.131Z,26.70
2022-10-29T01:47:51.279Z,26.83
2022-10-29T01:50:24.934Z,30.35
2022-10-29T01:52:57.523Z,27.58
2022-10-29T01:55:35.144Z,28.77
2022-10-29T01:58:07.536Z,27.90
2022-10-29T02:01:02.423Z,25.83
2022-10-29T02:03:42.635Z,25.55
2022-10-29T02:06:34.335Z,25.02
2022-10-29T02:09:29.823Z,27.17
2022-10-29T02:12:27.297Z,28.10
2022-10-29T02:15:13.154Z,29.60
2022-10-29T02:17:44.987Z,26.95
2022-10-29T02:20:17.060Z,29.02
2022-10-29T02:22:48.635Z,25.42
2022-10-29T02:25:20.378Z,27.85
2022-10-29T02:27:52.199Z,23.77
2022-10-29T02:30:23.883Z,27.75
2022-10-29T02:32:58.066Z,25.35
2022-10-29T02:35:29.921Z,26.10
2022-10-29T02:38:04.596Z,25.98
2022-10-29T02:43:07.918Z,25.55
2022-10-29T02:45:41.514Z,28.58
2022-10-29T02:48:13.396Z,24.50
2022-10-29T02:50:45.011Z,25.33
2022-10-29T02:53:16.602Z,30.77
2022-10-29T02:55:48.229Z,24.85
2022-10-29T03:00:56.311Z,27.55
2022-10-29T03:03:29.909Z,26.77
2022-10-29T03:06:05.223Z,24.35
2022-10-29T03:08:39.703Z,21.77
2022-10-29T03:11:12.094Z,24.88
2022-10-29T03:13:46.746Z,24.70
2022-10-29T03:18:50.779Z,21.92
2022-10-29T03:21:24.711Z,25.73
2022-10-29T03:23:56.312Z,25.33
2022-10-29T03:26:27.913Z,22.48
2022-10-29T03:28:59.708Z,22.77
2022-10-29T03:31:33.431Z,21.35
2022-10-29T03:34:06.253Z,21.75
2022-10-29T03:36:37.856Z,21.10
2022-10-29T03:39:09.488Z,25.50
2022-10-29T03:41:41.083Z,23.08
2022-10-29T03:44:12.701Z,22.92
2022-10-29T03:46:47.898Z,24.17
2022-10-29T03:49:22.294Z,24.42
2022-10-29T03:51:53.940Z,23.52
2022-10-29T03:54:25.564Z,24.60
2022-10-29T03:56:57.467Z,22.83
2022-10-29T03:59:31.065Z,21.52
2022-10-29T04:02:02.791Z,21.38
2022-10-29T04:04:41.770Z,21.33
2022-10-29T04:07:16.405Z,24.02
2022-10-29T04:12:23.468Z,19.80
2022-10-29T04:14:55.053Z,24.33
2022-10-29T04:17:29.615Z,20.48
2022-10-29T04:20:01.321Z,20.95
2022-10-29T04:28:52.054Z,18.02
2022-10-29T04:31:23.680Z,17.40
2022-10-29T04:33:55.667Z,19.38
2022-10-29T04:36:27.258Z,17.75
2022-10-29T04:38:58.870Z,23.40
2022-10-29T04:41:30.469Z,22.00
2022-10-29T04:44:02.606Z,17.33
2022-10-29T04:46:37.044Z,19.63
2022-10-29T04:49:08.695Z,17.00
2022-10-29T04:51:42.458Z,21.13
2022-10-29T04:54:15.624Z,22.75
2022-10-29T04:56:49.500Z,18.77
2022-10-29T04:59:24.433Z,19.52
2022-10-29T05:04:29.512Z,22.48
2022-10-29T05:07:02.987Z,25.55
2022-10-29T05:09:34.893Z,24.00
2022-10-29T05:12:10.345Z,25.65
2022-10-29T05:14:48.249Z,21.88
2022-10-29T05:17:20.019Z,22.42
2022-10-29T05:19:54.803Z,21.63
2022-10-29T05:22:28.419Z,19.38
2022-10-29T05:25:00.350Z,19.00
2022-10-29T05:27:31.999Z,21.20
2022-10-29T05:30:07.627Z,21.08
2022-10-29T05:32:39.259Z,18.73
2022-10-29T05:35:10.847Z,20.90
2022-10-29T05:37:42.405Z,18.17
2022-10-29T05:40:14.096Z,23.85
2022-10-29T05:42:47.399Z,19.55
2022-10-29T05:45:21.874Z,20.35
2022-10-29T05:48:01.736Z,22.67
2022-10-29T05:50:36.358Z,24.27
2022-10-29T05:53:11.458Z,25.15
2022-10-29T05:55:43.456Z,25.55
2022-10-29T05:58:15.081Z,26.77
2022-10-29T06:00:47.034Z,28.50
2022-10-29T06:03:21.986Z,24.17
2022-10-29T06:05:53.948Z,29.10
2022-10-29T06:08:25.656Z,30.23
2022-10-29T06:11:00.880Z,27.48
2022-10-29T06:13:33.015Z,26.83
2022-10-29T06:16:07.738Z,24.25
2022-10-29T06:21:13.522Z,25.33
2022-10-29T06:23:45.194Z,27.95
2022-10-29T06:26:20.195Z,27.08
2022-10-29T06:31:23.290Z,26.10
2022-10-29T06:33:57.235Z,24.90
2022-10-29T06:36:28.865Z,24.58
2022-10-29T06:39:00.538Z,27.00
2022-10-29T06:41:32.158Z,24.23
2022-10-29T06:44:03.825Z,23.55
2022-10-29T06:46:35.873Z,26.23
2022-10-29T06:49:08.540Z,31.88
2022-10-29T06:51:40.163Z,31.40
2022-10-29T06:54:14.518Z,26.98
2022-10-29T06:59:17.940Z,24.65
2022-10-29T07:01:52.595Z,22.20
2022-10-29T07:04:24.323Z,24.75
2022-10-29T07:06:55.955Z,25.95
2022-10-29T07:09:29.875Z,24.42
2022-10-29T07:12:01.487Z,26.38
2022-10-29T07:14:35.494Z,24.80
2022-10-29T07:17:07.087Z,27.25
2022-10-29T07:19:38.721Z,25.45
2022-10-29T07:22:14.390Z,21.88
2022-10-29T07:24:45.998Z,24.73
2022-10-29T07:27:18.111Z,21.13
2022-10-29T07:29:52.570Z,26.48
2022-10-29T07:32:25.193Z,26.55
2022-10-29T07:34:59.547Z,25.98
2022-10-29T07:37:35.359Z,26.67
2022-10-29T07:40:10.474Z,28.63
2022-10-29T07:42:42.370Z,26.13
2022-10-29T07:45:15.015Z,22.58
2022-10-29T07:50:20.083Z,24.90
2022-10-29T07:52:51.675Z,22.73
2022-10-29T07:55:23.427Z,25.67
2022-10-29T07:58:04.572Z,23.95
2022-10-29T08:00:39.000Z,27.08
2022-10-29T08:03:12.584Z,26.90
2022-10-29T08:05:45.754Z,24.88
2022-10-29T08:08:17.789Z,28.55
2022-10-29T08:10:49.375Z,26.13
2022-10-29T08:13:21.966Z,24.85
2022-10-29T08:15:55.057Z,25.90
2022-10-29T08:18:26.925Z,25.02
2022-10-29T08:20:58.571Z,29.83
2022-10-29T08:23:32.615Z,25.45
2022-10-29T08:26:04.281Z,29.10
2022-10-29T08:28:36.282Z,29.08
2022-10-29T08:31:07.868Z,31.50
2022-10-29T08:36:27.624Z,29.13
2022-10-29T08:39:01.629Z,23.90
2022-10-29T08:41:43.200Z,23.13
2022-10-29T08:44:33.559Z,23.70
2022-10-29T08:48:00.690Z,25.88
2022-10-29T08:50:41.145Z,25.95
2022-10-29T08:53:31.294Z,25.92
2022-10-29T08:56:16.501Z,23.00
2022-10-29T08:59:16.878Z,23.60
2022-10-29T09:01:48.868Z,23.52
2022-10-29T09:04:38.819Z,27.38
2022-10-29T09:07:29.122Z,30.45
2022-10-29T09:10:09.659Z,23.52
2022-10-29T09:13:00.231Z,18.70
2022-10-29T09:15:42.677Z,22.80
2022-10-29T09:18:24.811Z,18.48
2022-10-29T09:21:22.342Z,21.65
2022-10-29T09:24:51.466Z,20.10
2022-10-29T09:27:44.252Z,20.35
2022-10-29T09:30:22.595Z,21.63
2022-10-29T09:33:10.402Z,23.00
2022-10-29T09:35:47.674Z,23.70
2022-10-29T09:39:00.565Z,22.35
2022-10-29T09:41:34.485Z,26.67
2022-10-29T09:44:21.675Z,25.70
2022-10-29T09:47:44.082Z,19.17
2022-10-29T09:50:36.077Z,17.23
2022-10-29T09:53:14.052Z,21.20
2022-10-29T09:55:54.021Z,25.60
2022-10-29T09:58:27.665Z,19.67
2022-10-29T10:00:59.243Z,20.65
2022-10-29T10:03:46.263Z,17.60
2022-10-29T10:06:18.197Z,16.88
2022-10-29T10:09:01.814Z,20.80
2022-10-29T10:11:42.686Z,16.15
2022-10-29T10:14:23.598Z,16.58
2022-10-29T10:17:00.029Z,17.33
2022-10-29T10:19:32.645Z,20.90
2022-10-29T10:22:08.537Z,17.65
2022-10-29T10:24:43.519Z,17.70
2022-10-29T10:27:17.877Z,17.65
2022-10-29T10:30:04.647Z,21.05
2022-10-29T10:32:36.915Z,16.85
2022-10-29T10:35:40.842Z,17.48
2022-10-29T10:38:15.084Z,14.43
2022-10-29T10:43:29.207Z,11.30
2022-10-29T10:46:06.704Z,12.38
2022-10-29T10:48:38.699Z,14.52
2022-10-29T10:51:22.402Z,15.75
2022-10-29T10:53:54.399Z,16.73
2022-10-29T10:56:26.538Z,15.20
2022-10-29T10:59:24.896Z,14.93
2022-10-29T11:02:00.749Z,14.15
2022-10-29T11:04:40.088Z,12.63
2022-10-29T11:07:14.078Z,10.75
2022-10-29T11:09:50.186Z,11.23
2022-10-29T11:12:37.147Z,12.57
2022-10-29T11:15:24.247Z,10.57
2022-10-29T11:18:03.129Z,15.45
2022-10-29T11:20:42.012Z,12.82
2022-10-29T11:23:29.579Z,13.82
2022-10-29T11:26:09.688Z,10.95
2022-10-29T11:28:48.789Z,14.52
2022-10-29T11:31:40.295Z,12.18
2022-10-29T11:34:21.350Z,14.27
2022-10-29T11:37:28.364Z,12.05
2022-10-29T11:40:38.066Z,10.43
2022-10-29T11:43:13.592Z,13.55
2022-10-29T11:46:06.865Z,10.02
2022-10-29T11:49:10.886Z,9.18
2022-10-29T11:52:02.475Z,8.75
2022-10-29T11:54:52.414Z,12.85
2022-10-29T11:58:01.439Z,13.35
2022-10-29T12:00:50.657Z,14.55
2022-10-29T12:03:49.273Z,10.20
2022-10-29T12:06:32.052Z,12.27
2022-10-29T12:09:34.219Z,12.73
2022-10-29T12:12:24.430Z,11.55
2022-10-29T12:15:13.487Z,12.88
2022-10-29T12:18:23.074Z,10.30
2022-10-29T12:21:06.945Z,12.55
2022-10-29T12:23:57.166Z,10.45
2022-10-29T12:26:55.095Z,14.20
2022-10-29T12:29:57.104Z,14.02
2022-10-29T12:32:57.898Z,10.43
2022-10-29T12:35:39.651Z,14.07
2022-10-29T12:38:31.024Z,15.27
2022-10-29T12:41:25.534Z,16.17
2022-10-29T12:44:11.012Z,8.45
2022-10-29T12:47:19.788Z,12.52
2022-10-29T12:50:00.437Z,9.25
2022-10-29T12:52:44.092Z,13.35
2022-10-29T12:55:19.670Z,15.90
2022-10-29T12:57:51.392Z,14.45
2022-10-29T13:00:43.759Z,12.00
2022-10-29T13:03:52.891Z,13.43
2022-10-29T13:06:42.655Z,16.40
2022-10-29T13:09:43.033Z,16.65
2022-10-29T13:12:56.562Z,15.60
2022-10-29T13:15:58.655Z,18.15
2022-10-29T13:18:41.688Z,17.67
2022-10-29T13:21:13.903Z,15.60
2022-10-29T13:24:03.031Z,15.43
2022-10-29T13:27:33.287Z,21.15
2022-10-29T13:30:19.032Z,13.20
2022-10-29T13:32:50.665Z,17.77
2022-10-29T13:35:25.147Z,15.82
2022-10-29T13:38:08.783Z,14.93
2022-10-29T13:41:02.353Z,12.88
2022-10-29T13:43:35.114Z,19.17
2022-10-29T13:46:17.455Z,19.27
2022-10-29T13:48:53.433Z,19.08
2022-10-29T13:51:32.241Z,18.10
2022-10-29T13:54:22.326Z,17.55
2022-10-29T13:57:17.371Z,16.55
2022-10-29T14:02:54.844Z,16.95
2022-10-29T14:05:41.652Z,16.75
2022-10-29T14:08:29.916Z,18.30
2022-10-29T14:11:18.179Z,13.35
2022-10-29T14:13:52.515Z,13.95
2022-10-29T14:19:19.601Z,15.05
2022-10-29T14:21:53.002Z,15.13
2022-10-29T14:24:24.600Z,13.60
2022-10-29T14:27:07.789Z,14.35
2022-10-29T14:29:39.527Z,18.42
2022-10-29T14:32:19.644Z,16.35
2022-10-29T14:34:51.989Z,15.65
2022-10-29T14:37:31.168Z,15.45
2022-10-29T14:40:17.437Z,14.75
2022-10-29T14:42:55.627Z,15.63
2022-10-29T14:45:30.465Z,16.65
2022-10-29T14:50:46.257Z,15.57
2022-10-29T14:53:43.692Z,12.63
2022-10-29T14:56:20.050Z,16.55
2022-10-29T14:58:51.977Z,20.17
2022-10-29T15:01:25.751Z,14.88
2022-10-29T15:04:00.896Z,19.95
2022-10-29T15:06:35.265Z,18.45
2022-10-29T15:09:20.218Z,22.38
2022-10-29T15:12:07.506Z,17.73
2022-10-29T15:14:55.411Z,18.15
2022-10-29T15:17:31.045Z,18.00
2022-10-29T15:20:06.535Z,20.73
2022-10-29T15:22:42.702Z,17.15
2022-10-29T15:25:23.244Z,17.52
2022-10-29T15:27:55.299Z,17.85
2022-10-29T15:30:35.589Z,16.90
2022-10-29T15:33:20.840Z,20.80
2022-10-29T15:36:01.159Z,18.05
2022-10-29T15:38:35.543Z,16.77
2022-10-29T15:41:18.931Z,16.77
2022-10-29T15:43:55.276Z,17.85
2022-10-29T15:46:29.512Z,20.10
2022-10-29T15:49:01.180Z,15.82
2022-10-29T15:51:35.787Z,18.75
2022-10-29T15:54:16.142Z,17.83
2022-10-29T15:56:48.880Z,20.00
2022-10-29T15:59:24.645Z,19.92
2022-10-29T16:01:56.332Z,16.45
2022-10-29T16:04:28.068Z,16.85
2022-10-29T16:07:00.048Z,18.45
2022-10-29T16:09:32.727Z,17.77
2022-10-29T16:12:04.540Z,19.00
2022-10-29T16:14:36.212Z,15.73
2022-10-29T16:17:15.943Z,20.40
2022-10-29T16:19:48.275Z,17.30
2022-10-29T16:22:37.246Z,21.20
2022-10-29T16:25:35.492Z,15.90
2022-10-29T16:28:07.515Z,17.70
2022-10-29T16:33:12.184Z,19.63
2022-10-29T16:35:44.509Z,16.55
2022-10-29T16:38:18.509Z,20.95
2022-10-29T16:40:51.057Z,20.15
2022-10-29T16:45:57.584Z,24.10
2022-10-29T16:48:34.649Z,18.55
2022-10-29T16:51:14.471Z,17.23
2022-10-29T16:53:46.310Z,21.65
2022-10-29T16:56:18.491Z,19.15
2022-10-29T16:58:52.291Z,19.30
2022-10-29T17:01:23.936Z,19.17
2022-10-29T17:03:55.631Z,20.67
2022-10-29T17:06:30.287Z,17.33
2022-10-29T17:09:01.928Z,19.15
2022-10-29T17:11:33.556Z,19.60
2022-10-29T17:14:05.132Z,23.77
2022-10-29T17:16:38.794Z,18.70
2022-10-29T17:19:10.387Z,20.40
2022-10-29T17:21:42.163Z,20.55
2022-10-29T17:24:13.782Z,23.58
2022-10-29T17:26:45.424Z,19.20
2022-10-29T17:29:17.786Z,22.80
2022-10-29T17:31:52.992Z,21.23
2022-10-29T17:34:25.288Z,21.52
2022-10-29T17:36:56.984Z,22.13
2022-10-29T17:39:28.621Z,20.65
2022-10-29T17:42:00.859Z,15.73
2022-10-29T17:44:37.256Z,21.90
2022-10-29T17:47:09.056Z,19.77
2022-10-29T17:49:42.736Z,20.77
2022-10-29T17:52:14.331Z,18.93
2022-10-29T17:54:45.911Z,24.17
2022-10-29T17:57:18.764Z,18.50
2022-10-29T17:59:50.435Z,19.38
2022-10-29T18:02:23.181Z,24.13
2022-10-29T18:04:57.573Z,19.13
2022-10-29T18:07:29.168Z,20.30
2022-10-29T18:10:00.786Z,17.80
2022-10-29T18:12:32.593Z,17.98
2022-10-29T18:15:05.393Z,21.65
2022-10-29T18:17:37.072Z,22.40
2022-10-29T18:20:09.362Z,23.83
2022-10-29T18:22:44.538Z,20.23
2022-10-29T18:25:16.193Z,19.08
2022-10-29T18:27:48.536Z,22.35
2022-10-29T18:30:22.750Z,19.15
2022-10-29T18:32:54.693Z,17.33
2022-10-29T18:35:30.071Z,17.13
2022-10-29T18:38:01.644Z,18.80
2022-10-29T18:40:33.237Z,20.13
2022-10-29T18:43:04.942Z,25.90
2022-10-29T18:45:36.562Z,19.85
2022-10-29T18:48:11.217Z,18.75
2022-10-29T18:50:43.032Z,17.75
2022-10-29T18:53:18.002Z,25.70
2022-10-29T18:55:53.653Z,20.73
2022-10-29T18:58:29.313Z,19.08
2022-10-29T19:01:09.545Z,21.67
2022-10-29T19:03:48.431Z,19.35
2022-10-29T19:06:21.215Z,22.92
2022-10-29T19:08:52.908Z,21.80
2022-10-29T19:11:28.772Z,20.30
2022-10-29T19:14:06.150Z,20.60
2022-10-29T19:16:37.768Z,23.85
2022-10-29T19:19:12.876Z,20.83
2022-10-29T19:21:47.446Z,24.55
2022-10-29T19:26:50.613Z,24.95
2022-10-29T19:29:22.354Z,23.23
2022-10-29T19:31:53.953Z,21.38
2022-10-29T19:34:25.721Z,25.00
2022-10-29T19:36:57.342Z,19.25
2022-10-29T19:39:28.995Z,21.80
2022-10-29T19:42:00.631Z,21.95
2022-10-29T19:44:32.284Z,24.00
2022-10-29T19:47:04.701Z,24.00
2022-10-29T19:49:36.304Z,25.77
2022-10-29T19:52:08.081Z,25.70
2022-10-29T19:54:40.039Z,23.73
2022-10-29T19:57:14.451Z,27.58
2022-10-29T19:59:46.076Z,21.52
2022-10-29T20:02:17.708Z,26.67
2022-10-29T20:04:49.397Z,26.48
2022-10-29T20:07:20.993Z,22.95
2022-10-29T20:09:57.026Z,27.05
2022-10-29T20:12:31.624Z,24.65
2022-10-29T20:15:04.563Z,21.77
2022-10-29T20:17:36.438Z,24.50
2022-10-29T20:20:14.157Z,24.45
2022-10-29T20:22:50.153Z,23.45
2022-10-29T20:25:23.833Z,28.73
2022-10-29T20:27:57.983Z,27.48
2022-10-29T20:30:30.171Z,22.95
2022-10-29T20:33:01.787Z,24.48
2022-10-29T20:35:33.458Z,23.90
2022-10-29T20:38:05.813Z,27.83
2022-10-29T20:40:37.492Z,29.60
2022-10-29T20:43:16.229Z,27.73
2022-10-29T20:45:47.901Z,26.80
2022-10-29T20:48:22.455Z,28.15
2022-10-29T20:53:25.559Z,25.67
2022-10-29T20:55:57.550Z,27.70
2022-10-29T20:58:31.867Z,27.67
2022-10-29T21:03:42.111Z,29.77
2022-10-29T21:06:17.636Z,23.77
2022-10-29T21:08:51.235Z,24.27
2022-10-29T21:11:24.427Z,26.55
2022-10-29T21:13:58.698Z,26.52
2022-10-29T21:16:30.375Z,28.33
2022-10-29T21:19:04.742Z,31.38
2022-10-29T21:21:36.407Z,27.55
2022-10-29T21:24:08.073Z,30.13
2022-10-29T21:26:39.724Z,27.10
2022-10-29T21:29:11.332Z,29.33
2022-10-29T21:31:42.947Z,24.02
2022-10-29T21:34:17.260Z,25.77
2022-10-29T21:36:49.645Z,25.70
2022-10-29T21:39:22.263Z,33.33
2022-10-29T21:44:27.655Z,30.23
2022-10-29T21:46:59.271Z,28.60
2022-10-29T21:49:30.845Z,32.53
2022-10-29T21:52:02.515Z,33.55
2022-10-29T21:54:34.106Z,27.98
2022-10-29T21:57:05.988Z,27.63
2022-10-29T21:59:37.564Z,31.05
2022-10-29T22:02:09.244Z,30.17
2022-10-29T22:04:40.974Z,31.98
2022-10-29T22:07:12.709Z,28.63
2022-10-29T22:09:44.352Z,33.65
2022-10-29T22:12:18.296Z,30.30
2022-10-29T22:14:49.960Z,26.48
2022-10-29T22:17:21.675Z,27.23
2022-10-29T22:19:53.250Z,29.92
2022-10-29T22:22:26.868Z,28.70
2022-10-29T22:24:58.424Z,30.45
2022-10-29T22:27:30.472Z,33.88
2022-10-29T22:30:05.327Z,27.05
2022-10-29T22:32:36.926Z,32.25
2022-10-29T22:35:09.854Z,29.10
2022-10-29T22:37:41.480Z,30.58
2022-10-29T22:40:13.115Z,32.08
2022-10-29T22:42:44.732Z,40.47
2022-10-29T22:45:16.376Z,32.85
2022-10-29T22:47:47.988Z,35.47
2022-10-29T22:50:19.587Z,35.90
2022-10-29T22:52:51.244Z,31.35
2022-10-29T22:55:25.865Z,40.05
2022-10-29T23:00:29.282Z,36.33
2022-10-29T23:03:06.188Z,38.05
2022-10-29T23:05:37.835Z,36.38
2022-10-29T23:08:09.554Z,32.72
2022-10-29T23:10:41.129Z,38.35
2022-10-29T23:13:19.930Z,36.47
2022-10-29T23:15:54.504Z,37.65
2022-10-29T23:21:01.971Z,39.05
2022-10-29T23:23:35.227Z,37.05
2022-10-29T23:26:06.977Z,39.67
2022-10-29T23:28:41.710Z,36.78
2022-10-29T23:31:22.262Z,39.88
2022-10-29T23:33:56.159Z,38.92
2022-10-29T23:36:28.104Z,35.17
2022-10-29T23:39:03.606Z,40.20
2022-10-29T23:41:35.291Z,38.80
2022-10-29T23:44:06.890Z,38.30
2022-10-29T23:46:38.770Z,36.22
2022-10-29T23:49:11.021Z,35.20
2022-10-29T23:51:47.634Z,37.38
2022-10-29T23:54:19.237Z,38.50
2022-10-29T23:56:50.838Z,38.63
2022-10-29T23:59:25.146Z,39.17
